Terminal Aerodrome Forecast
Issued by NWS Cleveland, OH

Home | Current Version | Previous Version | Graphics & Text | Print | Product List | Glossary Off
Versions: 1 2 3 4 5 6 7 8 9 10 11 12 13 14 15 16 17 18

000
FTUS41 KCLE 272046 AAA
TAFMFD
TAF AMD
KMFD 272046Z 2721/2818 15010KT P6SM SCT050
     FM272200 18010KT P6SM VCSH BKN045 OVC150
      TEMPO 2722/2724 24012G25KT 3SM -TSRA BKN015CB OVC035
     FM280200 18003KT P6SM SCT050 BKN100
     FM280700 20003KT 4SM BR BKN025
     FM281300 18003KT P6SM BKN030=

USA.gov is the U.S. government's official web portal to all federal, state and local government web resources and services.